Terminal Aerodrome Forecast
Issued by NWS

Home | Current Version | Previous Version | Text Only | Print | Product List | Glossary On
Versions: 1 2 3 4 5 6 7 8 9 10 11 12 13 14 15 16 17 18 19 20 21 22 23 24 25 26 27 28 29 30 31 32 33 34
152
FTUS43 KFGF 230520
TAFTVF
TAF
KTVF 230520Z 2306/2406 27011KT P6SM BKN090
     FM230700 28010KT P6SM BKN070
     FM231000 29014KT P6SM BKN030
     FM231100 30012KT P6SM BKN015
     FM232200 31016G24KT P6SM BKN040
     FM240400 30006KT P6SM BKN050
     FM240500 30006KT P6SM SCT060=

USA.gov is the U.S. government's official web portal to all federal, state and local government web resources and services.